Time;durP1;ratioP1;P1;durP2;ratioP2;P2;SDS_P1;SDS_P2;PMS_P1;PMS_P2;Temp;Humidity;BMP_temperature;BMP_pressure;BME280_temperature;BME280_humidity;BME280_pressure;Samples;Min_cycle;Max_cycle;Signal;HPM_P1;HPM_P2
2023/07/20 00:02:19;;;;;;;9.55;7.95;;;;;;;22.33;68.18;92610.00;5049471;28;20197;-71
2023/07/20 00:04:44;;;;;;;11.48;8.88;;;;;;;22.31;68.20;92605.03;5048760;28;20248;-71
2023/07/20 00:07:10;;;;;;;9.65;8.55;;;;;;;22.28;68.48;92605.72;5049324;28;20272;-71
2023/07/20 00:09:35;;;;;;;14.32;8.00;;;;;;;22.37;69.41;92608.19;5048766;28;20200;-71
2023/07/20 00:12:00;;;;;;;7.93;7.30;;;;;;;22.33;69.63;92599.34;5049240;28;20176;-71
2023/07/20 00:14:26;;;;;;;10.70;8.27;;;;;;;22.23;68.93;92595.38;5049283;28;20286;-71
2023/07/20 00:16:55;;;;;;;11.00;7.90;;;;;;;22.35;68.86;92583.81;5049629;28;20191;-71
2023/07/20 00:19:25;;;;;;;8.63;7.65;;;;;;;22.36;68.25;92591.44;5048793;28;20210;-71
2023/07/20 00:21:50;;;;;;;10.00;8.98;;;;;;;22.26;69.52;92588.59;5049171;28;20195;-71
2023/07/20 00:24:16;;;;;;;12.38;9.88;;;;;;;22.09;69.73;92579.91;5049320;28;20172;-72
2023/07/20 00:26:42;;;;;;;9.95;8.07;;;;;;;22.03;70.52;92588.50;5029109;28;20222;-71
2023/07/20 00:29:07;;;;;;;10.77;8.75;;;;;;;22.09;70.13;92592.41;5042678;28;20197;-71
2023/07/20 00:31:34;;;;;;;11.00;8.75;;;;;;;21.97;70.28;92590.69;5036544;28;20286;-71
2023/07/20 00:34:00;;;;;;;9.90;8.90;;;;;;;21.65;69.58;92602.47;5035748;28;20248;-71
2023/07/20 00:36:25;;;;;;;12.00;8.82;;;;;;;21.59;68.35;92589.78;5039878;28;20219;-71
2023/07/20 00:38:51;;;;;;;9.38;8.70;;;;;;;21.67;68.91;92599.47;5033024;28;20191;-71
2023/07/20 00:41:17;;;;;;;13.18;8.63;;;;;;;21.89;66.71;92596.19;5032755;28;20227;-71
2023/07/20 00:43:42;;;;;;;10.98;9.23;;;;;;;21.99;67.68;92595.66;5033309;28;20186;-71
2023/07/20 00:46:09;;;;;;;10.25;8.45;;;;;;;21.92;68.18;92579.53;5032666;28;20231;-71
2023/07/20 00:48:35;;;;;;;9.25;8.40;;;;;;;22.04;67.17;92587.38;5036917;28;20220;-71
2023/07/20 00:51:01;;;;;;;9.32;8.25;;;;;;;22.07;67.41;92576.06;5039451;28;20237;-71
2023/07/20 00:53:27;;;;;;;9.30;8.48;;;;;;;22.12;67.59;92579.19;5032492;28;20264;-71
2023/07/20 00:55:53;;;;;;;9.43;8.55;;;;;;;22.12;67.43;92579.19;5044991;28;20220;-72
2023/07/20 00:58:18;;;;;;;14.13;9.02;;;;;;;22.02;68.55;92568.34;5051427;28;20209;-71
2023/07/20 01:00:44;;;;;;;11.07;9.95;;;;;;;21.90;68.66;92571.13;5051926;28;20259;-71
2023/07/20 01:03:10;;;;;;;9.00;8.07;;;;;;;21.91;68.53;92568.16;5055774;28;20213;-71
2023/07/20 01:05:52;;;;;;;9.73;8.75;;;;;;;22.01;68.67;92574.78;5060164;28;20232;-71
2023/07/20 01:08:26;;;;;;;9.75;8.60;;;;;;;21.94;67.26;92578.09;5051167;28;20203;-71
2023/07/20 01:11:02;;;;;;;11.30;8.27;;;;;;;21.91;67.48;92572.69;5044853;28;20250;-71
2023/07/20 01:13:29;;;;;;;8.75;7.90;;;;;;;21.97;67.16;92582.69;5052650;28;20195;-71
2023/07/20 01:16:01;;;;;;;9.88;9.07;;;;;;;21.92;70.94;92579.53;5051557;28;20649;-71
2023/07/20 01:18:26;;;;;;;14.90;8.50;;;;;;;21.96;70.81;92575.06;5051210;28;20218;-71
2023/07/20 01:20:59;;;;;;;9.98;9.15;;;;;;;21.87;70.66;92588.56;5051695;28;20224;-71
2023/07/20 01:23:36;;;;;;;9.43;8.57;;;;;;;21.78;69.45;92595.19;5051969;28;20235;-71
2023/07/20 01:26:39;;;;;;;9.43;8.38;;;;;;;21.50;72.39;92591.88;5056891;28;20235;-71
2023/07/20 01:29:29;;;;;;;11.40;9.02;;;;;;;21.43;72.33;92583.75;5052205;28;20190;-71
2023/07/20 01:31:55;;;;;;;11.57;7.68;;;;;;;21.38;71.94;92566.19;5041363;28;20219;-71
2023/07/20 01:34:23;;;;;;;9.15;8.32;;;;;;;21.45;72.23;92558.38;5051438;28;20195;-71
2023/07/20 01:36:52;;;;;;;10.27;9.02;;;;;;;21.55;71.57;92565.03;5051891;28;20211;-71
2023/07/20 01:39:19;;;;;;;11.13;9.57;;;;;;;21.39;73.15;92577.56;5051488;28;20185;-70
2023/07/20 01:41:45;;;;;;;10.93;9.65;;;;;;;21.23;73.79;92574.19;5050626;28;20295;-71
2023/07/20 01:44:12;;;;;;;10.68;9.20;;;;;;;21.17;74.34;92578.22;5051604;28;20200;-71
2023/07/20 01:46:38;;;;;;;11.43;9.48;;;;;;;21.05;74.27;92570.31;5050767;28;20239;-71
2023/07/20 01:49:03;;;;;;;10.38;9.48;;;;;;;21.10;75.12;92586.78;5051724;28;20187;-71
2023/07/20 01:51:28;;;;;;;9.68;8.88;;;;;;;20.90;75.44;92563.13;5051293;28;20220;-71
2023/07/20 01:53:54;;;;;;;9.80;8.80;;;;;;;20.86;75.57;92563.00;5084087;28;20187;-71
2023/07/20 01:56:20;;;;;;;11.02;10.02;;;;;;;21.03;76.12;92572.56;5059774;28;20210;-71
2023/07/20 01:58:45;;;;;;;10.50;9.60;;;;;;;21.08;75.90;92572.28;5051570;28;20231;-71
2023/07/20 02:01:11;;;;;;;12.70;9.80;;;;;;;20.77;77.37;92561.63;5050682;28;20224;-71
2023/07/20 02:03:36;;;;;;;9.52;8.60;;;;;;;20.60;78.66;92558.22;5051458;28;20183;-71
2023/07/20 02:06:02;;;;;;;9.90;9.10;;;;;;;20.52;79.09;92545.88;5036970;28;20256;-71
2023/07/20 02:08:27;;;;;;;9.55;8.63;;;;;;;20.75;78.55;92554.03;5031476;28;20227;-71
2023/07/20 02:10:52;;;;;;;10.80;9.80;;;;;;;20.65;78.04;92559.84;5042776;28;20216;-71
2023/07/20 02:13:18;;;;;;;9.82;8.82;;;;;;;20.55;78.11;92560.34;5051164;28;20183;-71
2023/07/20 02:15:43;;;;;;;10.27;9.32;;;;;;;20.69;77.08;92556.16;5050412;28;20237;-71
2023/07/20 02:18:09;;;;;;;9.05;8.23;;;;;;;20.55;77.97;92563.00;5051104;28;20894;-71
2023/07/20 02:20:35;;;;;;;10.90;9.63;;;;;;;20.60;78.65;92568.06;5050215;28;20680;-71
2023/07/20 02:23:01;;;;;;;9.60;8.52;;;;;;;20.50;78.32;92552.63;5051138;28;20245;-71
2023/07/20 02:25:26;;;;;;;10.60;9.15;;;;;;;20.36;79.34;92561.00;5053158;28;20311;-71
2023/07/20 02:27:52;;;;;;;9.77;8.80;;;;;;;20.33;79.52;92559.03;5050837;28;20269;-71
2023/07/20 02:30:17;;;;;;;12.07;9.48;;;;;;;20.29;79.64;92547.56;5050412;28;20227;-71
2023/07/20 02:32:45;;;;;;;14.98;9.27;;;;;;;20.46;79.27;92554.41;5050591;28;20218;-71
2023/07/20 02:35:11;;;;;;;14.32;9.52;;;;;;;20.34;79.93;92551.84;5050159;28;21073;-71
2023/07/20 02:37:37;;;;;;;10.52;9.52;;;;;;;20.29;80.07;92554.72;5050548;28;20199;-71
2023/07/20 02:40:04;;;;;;;14.65;10.55;;;;;;;20.33;80.77;92551.06;5043580;28;20254;-70
2023/07/20 02:42:29;;;;;;;13.65;9.98;;;;;;;20.24;80.20;92555.75;5035939;28;20194;-71
2023/07/20 02:44:55;;;;;;;12.05;10.27;;;;;;;20.08;81.52;92552.25;5038390;28;20247;-71
2023/07/20 02:47:20;;;;;;;12.38;9.70;;;;;;;20.16;80.45;92538.09;5050631;28;20251;-71
2023/07/20 02:49:45;;;;;;;9.70;9.00;;;;;;;20.18;80.32;92535.91;5056653;28;20286;-70
2023/07/20 02:52:11;;;;;;;16.98;9.95;;;;;;;20.14;79.94;92527.06;5050440;28;20200;-71
2023/07/20 02:54:36;;;;;;;10.67;9.60;;;;;;;20.00;80.29;92516.06;5047384;28;20184;-71
2023/07/20 02:57:02;;;;;;;10.77;9.20;;;;;;;20.16;80.27;92519.56;5033846;28;20187;-71
2023/07/20 02:59:27;;;;;;;10.63;9.50;;;;;;;20.08;80.82;92520.44;5035386;28;20191;-71
2023/07/20 03:01:54;;;;;;;9.75;8.85;;;;;;;19.99;81.04;92527.00;5050196;28;20224;-71
2023/07/20 03:04:19;;;;;;;10.43;9.35;;;;;;;19.93;79.32;92517.75;5049774;28;20227;-70
2023/07/20 03:06:45;;;;;;;9.52;8.82;;;;;;;19.97;79.56;92527.34;5049710;28;20240;-70
2023/07/20 03:09:10;;;;;;;14.02;9.18;;;;;;;19.87;78.68;92532.34;5049930;28;20186;-70
2023/07/20 03:11:36;;;;;;;9.37;8.40;;;;;;;19.84;78.67;92531.16;5050268;28;20252;-71
2023/07/20 03:14:01;;;;;;;13.23;8.63;;;;;;;19.94;79.05;92545.78;5050290;28;20876;-70
2023/07/20 03:16:26;;;;;;;13.98;9.18;;;;;;;19.50;78.69;92486.69;5049500;28;20292;-71
2023/07/20 03:18:53;;;;;;;12.98;9.00;;;;;;;19.84;79.32;92546.28;5049908;28;20219;-71
2023/07/20 03:21:18;;;;;;;12.27;9.45;;;;;;;19.88;78.54;92534.66;5034069;28;20257;-71
2023/07/20 03:23:43;;;;;;;16.23;9.63;;;;;;;19.94;78.93;92551.84;5029792;28;20195;-71
2023/07/20 03:26:09;;;;;;;13.30;8.93;;;;;;;20.02;79.45;92556.25;5031440;28;20237;-71
2023/07/20 03:28:35;;;;;;;13.60;9.30;;;;;;;20.13;78.65;92560.00;5029640;28;20305;-71
2023/07/20 03:31:01;;;;;;;12.07;8.98;;;;;;;20.33;77.29;92559.03;5043563;28;20224;-71
2023/07/20 03:33:28;;;;;;;11.73;8.65;;;;;;;20.43;77.28;92558.53;5049692;28;20236;-70
2023/07/20 03:35:54;;;;;;;12.23;8.57;;;;;;;20.56;78.11;92553.94;5048118;28;20232;-71
2023/07/20 03:38:20;;;;;;;13.13;9.20;;;;;;;20.26;80.22;92556.19;5049652;28;20201;-71
2023/07/20 03:40:52;;;;;;;10.07;9.17;;;;;;;20.60;78.66;92558.22;5049923;28;20237;-71
2023/07/20 03:43:17;;;;;;;29.55;11.63;;;;;;;20.56;78.57;92561.91;5049684;28;20204;-70
2023/07/20 03:45:43;;;;;;;23.42;10.77;;;;;;;20.67;79.56;92562.91;5049599;28;20231;-71
2023/07/20 03:48:09;;;;;;;10.45;9.05;;;;;;;20.81;80.54;92557.97;5049448;28;20593;-71
2023/07/20 03:50:34;;;;;;;9.50;8.43;;;;;;;20.88;78.81;92555.50;5048140;28;20354;-71
2023/07/20 03:52:59;;;;;;;12.80;9.35;;;;;;;20.76;81.60;92565.41;5049333;28;20213;-71
2023/07/20 03:55:25;;;;;;;12.00;8.52;;;;;;;20.86;81.12;92560.38;5048581;28;20223;-71
2023/07/20 03:57:50;;;;;;;9.95;9.02;;;;;;;20.96;79.26;92559.13;5049218;28;20180;-71
2023/07/20 04:00:17;;;;;;;9.82;8.75;;;;;;;21.28;79.03;92576.56;5041294;28;20311;-71
2023/07/20 04:02:42;;;;;;;10.50;9.35;;;;;;;21.38;78.30;92576.03;5034094;28;20244;-71
2023/07/20 04:05:08;;;;;;;11.52;9.25;;;;;;;21.51;77.54;92580.88;5029159;28;20237;-71
2023/07/20 04:07:33;;;;;;;13.93;9.05;;;;;;;21.79;76.48;92576.22;5029794;28;20246;-70
2023/07/20 04:09:59;;;;;;;9.43;8.27;;;;;;;21.74;78.01;92559.75;5023475;28;20232;-71
2023/07/20 04:12:24;;;;;;;16.52;10.02;;;;;;;21.81;77.56;92554.63;5033683;28;20197;-71
2023/07/20 04:14:49;;;;;;;9.10;8.15;;;;;;;21.81;77.10;92547.41;5033312;28;20236;-71
2023/07/20 04:17:15;;;;;;;10.52;8.43;;;;;;;21.85;77.76;92542.19;5040439;28;20200;-71
2023/07/20 04:19:40;;;;;;;9.65;8.75;;;;;;;22.00;76.06;92554.63;5035692;28;20303;-71
2023/07/20 04:22:05;;;;;;;11.25;9.32;;;;;;;22.46;73.26;92542.97;5052914;28;20183;-71
2023/07/20 04:24:31;;;;;;;11.10;10.10;;;;;;;22.52;72.81;92552.25;5045242;28;20179;-71
2023/07/20 04:26:56;;;;;;;11.65;10.55;;;;;;;22.47;73.47;92546.41;5058358;28;20211;-71
2023/07/20 04:29:22;;;;;;;10.35;9.35;;;;;;;22.73;73.66;92552.63;5052830;28;20234;-71
2023/07/20 04:31:47;;;;;;;12.13;8.95;;;;;;;22.88;75.13;92550.97;5053027;28;20283;-71
2023/07/20 04:34:12;;;;;;;17.38;9.80;;;;;;;23.12;70.39;92558.59;5053293;28;20196;-71
2023/07/20 04:36:38;;;;;;;10.38;8.93;;;;;;;23.20;70.25;92544.25;5052272;28;20223;-71
2023/07/20 04:39:04;;;;;;;9.18;8.38;;;;;;;23.22;72.82;92544.69;5052756;28;20193;-71
2023/07/20 04:41:30;;;;;;;10.02;8.77;;;;;;;23.50;68.98;92545.88;5034364;28;20231;-71
2023/07/20 04:43:55;;;;;;;10.38;9.10;;;;;;;23.61;69.94;92546.06;5033268;28;20200;-71
2023/07/20 04:46:21;;;;;;;9.30;8.40;;;;;;;23.59;70.34;92549.09;5049223;28;20240;-71
2023/07/20 04:48:47;;;;;;;12.05;8.95;;;;;;;23.59;66.43;92553.63;5054197;28;20207;-71
2023/07/20 04:51:13;;;;;;;9.05;8.35;;;;;;;23.39;67.40;92538.88;5057369;28;20676;-71
2023/07/20 04:53:39;;;;;;;10.90;9.80;;;;;;;23.56;66.28;92543.69;5051832;28;20183;-70
2023/07/20 04:56:04;;;;;;;10.90;8.65;;;;;;;23.64;66.65;92551.41;5084021;28;20271;-71
2023/07/20 04:58:29;;;;;;;9.50;8.60;;;;;;;23.77;66.48;92539.41;5053003;28;20187;-70
2023/07/20 05:00:55;;;;;;;10.43;8.93;;;;;;;23.89;67.49;92540.34;5038949;28;20225;-71
2023/07/20 05:03:21;;;;;;;12.20;8.85;;;;;;;23.54;68.95;92546.72;5064887;28;20189;-70
2023/07/20 05:05:49;;;;;;;10.20;9.10;;;;;;;23.42;69.86;92538.94;5043905;28;20225;-71
2023/07/20 05:08:14;;;;;;;10.55;9.18;;;;;;;23.95;67.83;92544.22;5040481;28;20220;-70
2023/07/20 05:10:40;;;;;;;10.32;9.05;;;;;;;24.21;67.53;92538.84;5057682;28;20244;-70
2023/07/20 05:13:05;;;;;;;14.43;9.60;;;;;;;24.40;66.67;92544.03;5052428;28;20203;-70
2023/07/20 05:15:33;;;;;;;14.35;9.23;;;;;;;24.30;68.22;92539.31;5052194;28;20242;-71
2023/07/20 05:17:58;;;;;;;10.38;9.20;;;;;;;24.56;64.42;92553.34;5052218;28;20188;-70
2023/07/20 05:20:24;;;;;;;9.57;8.65;;;;;;;24.25;64.16;92547.66;5049092;28;20237;-70
2023/07/20 05:22:49;;;;;;;10.25;9.35;;;;;;;23.99;65.15;92548.50;5051971;28;20193;-71
2023/07/20 05:25:18;;;;;;;11.65;9.70;;;;;;;24.00;65.71;92557.28;5054633;28;20228;-70
2023/07/20 05:27:43;;;;;;;11.80;9.70;;;;;;;24.05;66.13;92549.72;5051795;28;20270;-71
2023/07/20 05:30:09;;;;;;;11.27;9.88;;;;;;;24.35;64.96;92558.47;5051587;28;20236;-71
2023/07/20 05:32:34;;;;;;;15.10;9.18;;;;;;;24.64;62.72;92568.31;5058234;28;20197;-71
2023/07/20 05:35:00;;;;;;;10.40;8.52;;;;;;;24.76;62.83;92561.97;5051607;28;20228;-70
2023/07/20 05:37:25;;;;;;;12.63;8.68;;;;;;;24.87;62.73;92546.81;5052144;28;20197;-71
2023/07/20 05:39:51;;;;;;;10.35;9.05;;;;;;;25.06;62.21;92575.97;5050946;28;21049;-70
2023/07/20 05:42:16;;;;;;;10.10;8.32;;;;;;;25.58;59.24;92562.31;5051815;28;20194;-71
2023/07/20 05:44:42;;;;;;;12.55;8.25;;;;;;;25.64;59.03;92576.88;5051035;28;20232;-71
2023/07/20 05:47:08;;;;;;;10.13;9.05;;;;;;;25.12;62.35;92580.63;5059427;28;20221;-71
2023/07/20 05:49:34;;;;;;;15.73;8.18;;;;;;;25.82;60.40;92588.44;5051068;28;20197;-71
2023/07/20 05:52:00;;;;;;;9.00;7.90;;;;;;;26.32;58.50;92592.94;5051474;28;20185;-71
2023/07/20 05:54:27;;;;;;;9.60;8.63;;;;;;;28.30;53.58;92589.34;5051206;28;20201;-71
2023/07/20 05:56:52;;;;;;;10.10;8.05;;;;;;;31.42;44.29;92609.44;5051410;28;20186;-71
2023/07/20 05:59:19;;;;;;;9.43;8.50;;;;;;;31.25;41.98;92598.47;5051715;28;20190;-71
2023/07/20 06:01:45;;;;;;;9.30;8.30;;;;;;;33.66;37.20;92607.19;5053232;28;20996;-73
2023/07/20 06:04:10;;;;;;;12.25;7.35;;;;;;;35.01;34.41;92601.41;5051026;28;20288;-71
2023/07/20 06:06:36;;;;;;;9.02;7.57;;;;;;;35.74;33.27;92613.25;5050759;28;20218;-71
2023/07/20 06:09:07;;;;;;;11.85;7.07;;;;;;;33.10;36.79;92603.03;5051327;28;20182;-71
2023/07/20 06:11:33;;;;;;;12.45;7.55;;;;;;;35.91;32.68;92617.38;5051210;28;20222;-71
2023/07/20 06:13:58;;;;;;;13.80;8.27;;;;;;;36.77;31.58;92623.06;5050954;28;20213;-71
2023/07/20 06:16:24;;;;;;;12.63;7.88;;;;;;;36.57;31.84;92608.97;5058665;28;20240;-71
2023/07/20 06:18:49;;;;;;;9.82;7.40;;;;;;;37.96;29.86;92615.13;5056271;28;20190;-71
2023/07/20 06:21:15;;;;;;;7.82;6.80;;;;;;;39.10;26.61;92609.97;5050693;28;20218;-71
2023/07/20 06:23:40;;;;;;;10.07;7.68;;;;;;;39.06;26.75;92603.91;5050766;28;20202;-71
2023/07/20 06:26:07;;;;;;;12.27;7.97;;;;;;;38.43;27.38;92599.91;5062945;28;20232;-71
2023/07/20 06:28:32;;;;;;;7.70;6.75;;;;;;;39.02;26.66;92600.56;5055598;28;20253;-71
2023/07/20 06:31:01;;;;;;;10.30;6.43;;;;;;;38.53;27.74;92583.56;5044669;28;20226;-71
2023/07/20 06:33:27;;;;;;;10.00;6.78;;;;;;;39.45;26.20;92592.00;5030712;28;20191;-71
2023/07/20 06:35:52;;;;;;;12.73;7.28;;;;;;;37.51;28.33;92593.13;5043251;28;20225;-71
2023/07/20 06:38:18;;;;;;;15.45;10.35;;;;;;;38.59;27.99;92592.69;5050583;28;20201;-72
2023/07/20 06:40:46;;;;;;;10.93;7.97;;;;;;;39.73;25.08;92612.53;5050008;28;20222;-71
2023/07/20 06:43:11;;;;;;;12.02;7.28;;;;;;;38.41;27.16;92596.91;5049583;28;20857;-72
2023/07/20 06:45:37;;;;;;;10.38;6.57;;;;;;;38.25;27.31;92586.25;5059426;28;20225;-71
2023/07/20 06:48:03;;;;;;;11.32;7.60;;;;;;;35.52;31.34;92591.41;5063285;28;20228;-71
2023/07/20 06:50:28;;;;;;;8.65;7.10;;;;;;;32.08;37.04;92577.94;5050562;28;20229;-71
2023/07/20 06:52:54;;;;;;;14.70;8.55;;;;;;;30.31;42.19;92578.06;5050057;28;20178;-71
2023/07/20 06:55:19;;;;;;;9.27;7.03;;;;;;;28.80;46.93;92569.22;5050373;28;20289;-72
2023/07/20 06:57:44;;;;;;;12.27;8.05;;;;;;;28.47;46.75;92560.91;5050365;28;20186;-71
2023/07/20 07:00:11;;;;;;;11.70;7.75;;;;;;;29.31;46.41;92563.94;5056746;28;20241;-71
2023/07/20 07:02:36;;;;;;;13.07;8.70;;;;;;;30.00;44.37;92581.81;5050244;28;20205;-71
2023/07/20 07:05:02;;;;;;;12.10;9.38;;;;;;;28.95;49.11;92592.16;5049485;28;20242;-72
2023/07/20 07:07:27;;;;;;;14.15;9.32;;;;;;;29.21;48.75;92594.38;5050061;28;20308;-71
2023/07/20 07:09:53;;;;;;;13.90;8.57;;;;;;;28.42;49.08;92591.63;5049765;28;20225;-71
2023/07/20 07:12:19;;;;;;;17.23;9.10;;;;;;;28.63;48.72;92598.84;5050031;28;20269;-71
2023/07/20 07:14:45;;;;;;;12.98;8.63;;;;;;;28.21;52.22;92607.81;5050125;28;20244;-71
2023/07/20 07:17:10;;;;;;;12.93;8.68;;;;;;;27.51;52.42;92618.56;5050207;28;20205;-71
2023/07/20 07:19:36;;;;;;;14.95;8.45;;;;;;;27.80;52.07;92614.75;5049420;28;20186;-71
2023/07/20 07:22:01;;;;;;;8.85;7.78;;;;;;;27.97;52.19;92624.75;5050168;28;20192;-71
2023/07/20 07:24:33;;;;;;;11.98;8.50;;;;;;;27.18;53.47;92632.28;5083047;28;20190;-71
2023/07/20 07:26:59;;;;;;;9.98;8.30;;;;;;;28.11;50.49;92633.53;5055145;28;20265;-71
2023/07/20 07:29:24;;;;;;;9.00;8.07;;;;;;;28.27;50.92;92635.03;5053247;28;20212;-71
2023/07/20 07:31:49;;;;;;;10.32;8.35;;;;;;;27.64;54.86;92638.50;5035273;28;20249;-71
2023/07/20 07:34:15;;;;;;;11.30;9.02;;;;;;;27.64;52.55;92638.50;5017815;28;20194;-71
2023/07/20 07:36:40;;;;;;;10.93;9.82;;;;;;;27.92;52.11;92635.84;5048355;28;20221;-71
2023/07/20 07:39:05;;;;;;;13.98;8.98;;;;;;;27.89;51.16;92636.63;5049984;28;20182;-71
2023/07/20 07:41:31;;;;;;;12.43;9.05;;;;;;;27.30;53.03;92621.25;5049356;28;20222;-71
2023/07/20 07:43:56;;;;;;;12.70;9.13;;;;;;;26.84;54.27;92620.34;5052911;28;20882;-71
2023/07/20 07:46:22;;;;;;;12.20;10.43;;;;;;;27.15;55.89;92616.97;5055682;28;20223;-71
2023/07/20 07:48:47;;;;;;;16.17;10.07;;;;;;;27.99;52.59;92625.88;5051016;28;20206;-71
2023/07/20 07:51:14;;;;;;;17.52;10.55;;;;;;;27.95;51.82;92600.19;5055146;28;20217;-71
2023/07/20 07:53:40;;;;;;;20.25;10.38;;;;;;;27.69;53.02;92597.91;5049486;28;20193;-71
2023/07/20 07:56:07;;;;;;;14.48;10.20;;;;;;;27.42;55.02;92594.06;5049131;28;20226;-71
2023/07/20 07:58:33;;;;;;;17.55;11.25;;;;;;;27.78;54.46;92585.59;5039499;28;20177;-71
2023/07/20 08:00:58;;;;;;;13.45;10.35;;;;;;;27.91;52.66;92599.41;5054977;28;20233;-71
2023/07/20 08:03:24;;;;;;;13.82;10.48;;;;;;;27.60;53.61;92584.06;5049638;28;20174;-71
2023/07/20 08:05:49;;;;;;;19.75;12.60;;;;;;;27.35;55.22;92572.59;5048686;28;20233;-70
2023/07/20 08:08:15;;;;;;;19.55;11.23;;;;;;;27.45;56.54;92590.59;5049436;28;20213;-70
2023/07/20 08:10:40;;;;;;;14.20;11.73;;;;;;;26.69;56.76;92606.91;5049056;28;20233;-71
2023/07/20 08:13:06;;;;;;;14.20;12.32;;;;;;;27.29;56.67;92620.47;5049069;28;20182;-71
2023/07/20 08:15:31;;;;;;;15.40;10.95;;;;;;;27.61;56.96;92631.22;5044938;28;20253;-71
2023/07/20 08:17:57;;;;;;;18.70;11.18;;;;;;;27.87;56.97;92646.94;5041722;28;20175;-71
2023/07/20 08:20:26;;;;;;;15.07;10.43;;;;;;;27.54;57.93;92639.25;5036659;28;20233;-71
2023/07/20 08:22:54;;;;;;;13.15;9.40;;;;;;;27.29;59.50;92649.19;5049550;28;20274;-71
2023/07/20 08:25:20;;;;;;;12.13;9.50;;;;;;;27.22;59.65;92654.53;5055847;28;20229;-71
2023/07/20 08:27:47;;;;;;;14.18;10.77;;;;;;;26.95;61.35;92655.97;5048857;28;20853;-71
2023/07/20 08:30:13;;;;;;;11.20;10.00;;;;;;;27.17;60.30;92655.66;5049044;28;20213;-70
2023/07/20 08:32:38;;;;;;;9.88;8.82;;;;;;;26.89;57.62;92636.84;5049228;28;20183;-70
2023/07/20 08:35:04;;;;;;;11.75;8.13;;;;;;;26.30;59.56;92630.06;5042968;28;20218;-71
2023/07/20 08:37:29;;;;;;;10.10;9.10;;;;;;;26.52;59.95;92644.31;5029270;28;20214;-71
2023/07/20 08:39:54;;;;;;;9.70;8.77;;;;;;;26.47;58.94;92648.13;5033497;28;20226;-71
2023/07/20 08:42:22;;;;;;;11.35;9.63;;;;;;;26.63;57.35;92627.16;5049187;28;20205;-70
2023/07/20 08:44:49;;;;;;;13.00;10.55;;;;;;;26.43;57.14;92631.25;5052966;28;20298;-71
2023/07/20 08:47:16;;;;;;;11.55;9.98;;;;;;;26.64;56.59;92634.06;5049498;28;20198;-71
2023/07/20 08:49:42;;;;;;;11.30;10.10;;;;;;;26.31;56.85;92628.13;5057729;28;20221;-70
2023/07/20 08:52:08;;;;;;;11.90;9.73;;;;;;;26.42;57.40;92639.66;5049910;28;20182;-71
2023/07/20 08:54:35;;;;;;;9.25;8.25;;;;;;;26.39;56.99;92643.88;5050563;28;20186;-71
2023/07/20 08:57:05;;;;;;;10.60;9.35;;;;;;;26.38;56.04;92628.94;5053064;28;20178;-71
2023/07/20 08:59:32;;;;;;;10.68;9.68;;;;;;;26.59;55.42;92623.69;5053999;28;20194;-71
2023/07/20 09:01:58;;;;;;;14.30;10.10;;;;;;;26.43;54.94;92617.09;5032815;28;20190;-70
2023/07/20 09:04:24;;;;;;;13.40;10.00;;;;;;;26.61;55.30;92604.56;5032553;28;20234;-70
2023/07/20 09:06:50;;;;;;;10.50;9.60;;;;;;;26.96;54.56;92610.03;5052250;28;20210;-70
2023/07/20 09:09:16;;;;;;;12.57;11.45;;;;;;;26.69;53.43;92612.25;5054425;28;20277;-71
2023/07/20 09:11:42;;;;;;;15.52;10.75;;;;;;;26.80;54.25;92606.19;5052128;28;20229;-70
2023/07/20 09:14:09;;;;;;;11.50;10.30;;;;;;;26.88;52.29;92607.72;5056143;28;20193;-71
2023/07/20 09:16:55;;;;;;;16.25;9.40;;;;;;;26.48;53.34;92606.81;5052013;28;20221;-71
2023/07/20 09:19:22;;;;;;;11.30;10.20;;;;;;;26.58;53.06;92616.03;5051671;28;20194;-71
2023/07/20 09:21:52;;;;;;;10.63;9.73;;;;;;;26.69;53.75;92608.84;5052043;28;20186;-71
2023/07/20 09:24:19;;;;;;;10.02;9.15;;;;;;;26.92;52.72;92592.41;5052556;28;20208;-70
2023/07/20 09:26:48;;;;;;;18.63;9.88;;;;;;;26.99;52.98;92589.78;5058841;28;20233;-70
2023/07/20 09:29:14;;;;;;;11.18;9.80;;;;;;;27.00;52.19;92591.28;5052192;28;20190;-70
2023/07/20 09:31:43;;;;;;;11.30;9.73;;;;;;;27.17;51.66;92601.28;5051819;28;20214;-70
2023/07/20 09:34:08;;;;;;;10.02;9.10;;;;;;;27.20;51.71;92593.25;5050110;28;20243;-71
2023/07/20 09:36:35;;;;;;;9.63;8.63;;;;;;;27.34;51.51;92584.47;5050488;28;20289;-71
2023/07/20 09:39:02;;;;;;;9.75;8.38;;;;;;;27.34;50.76;92601.34;5050178;28;20196;-71
2023/07/20 09:41:27;;;;;;;8.18;7.43;;;;;;;27.40;50.32;92591.75;5051514;28;20233;-71
2023/07/20 09:43:54;;;;;;;8.40;7.68;;;;;;;27.39;50.73;92589.47;5051792;28;20200;-71
2023/07/20 09:46:20;;;;;;;9.52;8.60;;;;;;;27.56;50.31;92584.09;5051243;28;20229;-70
2023/07/20 09:48:54;;;;;;;13.05;8.05;;;;;;;27.55;49.04;92576.44;5051935;28;20273;-71
2023/07/20 09:51:24;;;;;;;9.38;7.60;;;;;;;27.83;49.55;92581.78;5051383;28;20221;-71
2023/07/20 09:53:52;;;;;;;9.70;7.28;;;;;;;27.77;48.95;92577.94;5050914;28;20186;-71
2023/07/20 09:56:21;;;;;;;12.70;7.60;;;;;;;27.74;48.33;92574.09;5035041;28;20242;-71
2023/07/20 09:58:48;;;;;;;8.07;7.35;;;;;;;27.89;48.94;92543.44;5031831;28;20223;-71
2023/07/20 10:01:20;;;;;;;10.90;7.60;;;;;;;28.25;47.51;92549.50;5046765;28;20229;-71
2023/07/20 10:03:46;;;;;;;7.93;7.32;;;;;;;28.27;47.07;92528.38;5051190;28;20814;-71
2023/07/20 10:06:18;;;;;;;9.70;7.72;;;;;;;28.37;46.63;92540.22;5053384;28;20233;-71
2023/07/20 10:08:47;;;;;;;8.68;7.70;;;;;;;28.36;46.84;92547.50;5052543;28;20224;-71
2023/07/20 10:11:15;;;;;;;8.48;7.57;;;;;;;27.75;46.57;92546.13;5050701;28;20245;-71
2023/07/20 10:13:43;;;;;;;10.48;7.28;;;;;;;28.08;47.62;92551.06;5051285;28;20187;-71
2023/07/20 10:16:19;;;;;;;9.77;8.25;;;;;;;28.02;47.56;92562.56;5050590;28;20282;-71
2023/07/20 10:19:25;;;;;;;13.38;7.47;;;;;;;27.51;47.36;92554.97;5051405;28;20194;-71
2023/07/20 10:22:07;;;;;;;8.02;7.32;;;;;;;27.53;46.23;92562.63;5075891;28;20262;-71
2023/07/20 10:24:34;;;;;;;8.55;7.85;;;;;;;28.40;45.86;92564.38;5059536;28;20225;-71
2023/07/20 10:27:00;;;;;;;8.45;7.68;;;;;;;28.01;45.36;92569.09;5050774;28;20233;-71
2023/07/20 10:29:27;;;;;;;10.23;6.85;;;;;;;28.29;44.78;92569.03;5038898;28;20171;-71
2023/07/20 10:31:54;;;;;;;9.88;7.82;;;;;;;28.31;44.37;92565.97;5050701;28;20189;-71
2023/07/20 10:34:20;;;;;;;8.68;7.47;;;;;;;28.21;46.14;92557.56;5050513;28;20217;-71
2023/07/20 10:36:49;;;;;;;11.13;7.55;;;;;;;28.15;45.36;92556.44;5050283;28;20233;-70
2023/07/20 10:39:24;;;;;;;9.80;8.30;;;;;;;29.10;45.47;92563.31;5050158;28;20190;-71
2023/07/20 10:41:50;;;;;;;9.50;7.38;;;;;;;29.21;44.63;92558.63;5050206;28;20227;-71
2023/07/20 10:44:19;;;;;;;7.90;7.30;;;;;;;29.34;44.96;92552.38;5050755;28;20197;-71
2023/07/20 10:46:46;;;;;;;9.55;8.57;;;;;;;29.40;44.69;92553.47;5049521;28;20214;-71
2023/07/20 10:49:14;;;;;;;12.77;7.20;;;;;;;29.32;44.96;92530.50;5055908;28;20264;-71
2023/07/20 10:51:43;;;;;;;8.05;7.38;;;;;;;29.68;45.44;92498.69;5051996;28;20213;-70
2023/07/20 10:54:29;;;;;;;8.82;8.02;;;;;;;29.58;45.88;92489.53;5056338;28;20205;-71
2023/07/20 10:57:15;;;;;;;10.90;7.55;;;;;;;29.49;47.24;92512.66;5046105;28;20248;-71
2023/07/20 10:59:41;;;;;;;7.65;7.05;;;;;;;29.67;48.27;92518.69;5046667;28;20264;-71
2023/07/20 11:02:09;;;;;;;10.00;8.77;;;;;;;30.12;45.86;92527.47;5035451;28;20683;-71
2023/07/20 11:04:37;;;;;;;10.05;7.90;;;;;;;30.16;45.07;92514.72;5033522;28;20214;-71
2023/07/20 11:07:03;;;;;;;9.10;7.45;;;;;;;29.90;45.95;92510.75;5050071;28;20217;-71
2023/07/20 11:09:34;;;;;;;7.88;7.28;;;;;;;30.26;45.07;92501.16;5049437;28;20240;-71
2023/07/20 11:12:13;;;;;;;8.82;7.88;;;;;;;30.40;43.44;92502.91;5050285;28;20170;-71
2023/07/20 11:14:56;;;;;;;8.65;7.80;;;;;;;30.34;41.57;92513.38;5046900;28;20201;-71
2023/07/20 11:17:29;;;;;;;10.25;8.27;;;;;;;30.30;42.88;92517.28;5049591;28;20180;-72
2023/07/20 11:20:00;;;;;;;11.65;8.00;;;;;;;30.51;43.03;92511.59;5050020;28;20242;-71
2023/07/20 11:22:26;;;;;;;9.20;8.25;;;;;;;30.83;42.45;92501.97;5049803;28;20896;-71
2023/07/20 11:24:55;;;;;;;8.98;7.45;;;;;;;31.07;41.94;92500.06;5054109;28;20221;-71
2023/07/20 11:27:22;;;;;;;10.32;7.25;;;;;;;31.13;42.11;92506.56;5051845;28;20273;-71